sensor_id;sensor_type;location;lat;lon;timestamp;P1;durP1;ratioP1;P2;durP2;ratioP2
34497;SDS011;20744;50.938;7.286;2023-07-24T00:00:20;6.97;;;3.28;;
34497;SDS011;20744;50.938;7.286;2023-07-24T00:02:47;6.63;;;3.20;;
34497;SDS011;20744;50.938;7.286;2023-07-24T00:05:14;4.85;;;3.90;;
34497;SDS011;20744;50.938;7.286;2023-07-24T00:07:43;7.25;;;3.67;;
34497;SDS011;20744;50.938;7.286;2023-07-24T00:10:10;14.50;;;4.40;;
34497;SDS011;20744;50.938;7.286;2023-07-24T00:12:37;10.88;;;3.72;;
34497;SDS011;20744;50.938;7.286;2023-07-24T00:15:05;6.53;;;4.28;;
34497;SDS011;20744;50.938;7.286;2023-07-24T00:17:33;9.63;;;4.22;;
34497;SDS011;20744;50.938;7.286;2023-07-24T00:20:00;5.18;;;4.00;;
34497;SDS011;20744;50.938;7.286;2023-07-24T00:22:27;9.23;;;3.90;;
34497;SDS011;20744;50.938;7.286;2023-07-24T00:24:56;7.82;;;4.28;;
34497;SDS011;20744;50.938;7.286;2023-07-24T00:27:23;7.53;;;3.90;;
34497;SDS011;20744;50.938;7.286;2023-07-24T00:29:50;7.65;;;3.90;;
34497;SDS011;20744;50.938;7.286;2023-07-24T00:32:18;7.30;;;4.03;;
34497;SDS011;20744;50.938;7.286;2023-07-24T00:34:45;8.82;;;3.83;;
34497;SDS011;20744;50.938;7.286;2023-07-24T00:37:12;7.32;;;3.92;;
34497;SDS011;20744;50.938;7.286;2023-07-24T00:39:39;7.75;;;3.75;;
34497;SDS011;20744;50.938;7.286;2023-07-24T00:42:08;8.75;;;4.05;;
34497;SDS011;20744;50.938;7.286;2023-07-24T00:44:35;8.35;;;4.25;;
34497;SDS011;20744;50.938;7.286;2023-07-24T00:47:03;7.78;;;4.43;;
34497;SDS011;20744;50.938;7.286;2023-07-24T00:49:30;6.38;;;4.13;;
34497;SDS011;20744;50.938;7.286;2023-07-24T00:51:57;9.32;;;4.10;;
34497;SDS011;20744;50.938;7.286;2023-07-24T00:54:25;8.55;;;3.85;;
34497;SDS011;20744;50.938;7.286;2023-07-24T00:56:54;5.85;;;3.63;;
34497;SDS011;20744;50.938;7.286;2023-07-24T00:59:22;8.38;;;4.05;;
34497;SDS011;20744;50.938;7.286;2023-07-24T01:01:50;5.72;;;3.88;;
34497;SDS011;20744;50.938;7.286;2023-07-24T01:04:17;10.95;;;3.70;;
34497;SDS011;20744;50.938;7.286;2023-07-24T01:06:45;10.13;;;3.97;;
34497;SDS011;20744;50.938;7.286;2023-07-24T01:09:15;6.80;;;3.80;;
34497;SDS011;20744;50.938;7.286;2023-07-24T01:11:43;11.43;;;4.28;;
34497;SDS011;20744;50.938;7.286;2023-07-24T01:14:12;7.30;;;4.35;;
34497;SDS011;20744;50.938;7.286;2023-07-24T01:16:43;9.32;;;3.95;;
34497;SDS011;20744;50.938;7.286;2023-07-24T01:19:14;13.93;;;3.78;;
34497;SDS011;20744;50.938;7.286;2023-07-24T01:21:50;7.15;;;3.67;;
34497;SDS011;20744;50.938;7.286;2023-07-24T01:24:23;9.20;;;4.63;;
34497;SDS011;20744;50.938;7.286;2023-07-24T01:26:53;9.15;;;4.60;;
34497;SDS011;20744;50.938;7.286;2023-07-24T01:29:20;8.15;;;3.97;;
34497;SDS011;20744;50.938;7.286;2023-07-24T01:31:48;5.30;;;3.72;;
34497;SDS011;20744;50.938;7.286;2023-07-24T01:34:15;8.88;;;4.03;;
34497;SDS011;20744;50.938;7.286;2023-07-24T01:36:42;7.85;;;4.28;;
34497;SDS011;20744;50.938;7.286;2023-07-24T01:39:10;7.72;;;3.92;;
34497;SDS011;20744;50.938;7.286;2023-07-24T01:41:37;5.03;;;3.42;;
34497;SDS011;20744;50.938;7.286;2023-07-24T01:44:06;6.03;;;3.55;;
34497;SDS011;20744;50.938;7.286;2023-07-24T01:46:34;6.03;;;3.50;;
34497;SDS011;20744;50.938;7.286;2023-07-24T01:49:01;5.63;;;3.90;;
34497;SDS011;20744;50.938;7.286;2023-07-24T01:51:28;6.65;;;3.72;;
34497;SDS011;20744;50.938;7.286;2023-07-24T01:53:59;4.15;;;3.53;;
34497;SDS011;20744;50.938;7.286;2023-07-24T01:56:26;6.90;;;3.50;;
34497;SDS011;20744;50.938;7.286;2023-07-24T01:58:56;8.88;;;3.75;;
34497;SDS011;20744;50.938;7.286;2023-07-24T02:01:25;4.68;;;3.50;;
34497;SDS011;20744;50.938;7.286;2023-07-24T02:03:55;8.13;;;3.50;;
34497;SDS011;20744;50.938;7.286;2023-07-24T02:06:22;5.15;;;4.00;;
34497;SDS011;20744;50.938;7.286;2023-07-24T02:08:49;5.10;;;4.05;;
34497;SDS011;20744;50.938;7.286;2023-07-24T02:11:17;8.98;;;3.85;;
34497;SDS011;20744;50.938;7.286;2023-07-24T02:13:44;9.60;;;3.83;;
34497;SDS011;20744;50.938;7.286;2023-07-24T02:16:12;9.57;;;3.78;;
34497;SDS011;20744;50.938;7.286;2023-07-24T02:18:41;7.05;;;3.90;;
34497;SDS011;20744;50.938;7.286;2023-07-24T02:21:09;8.68;;;4.03;;
34497;SDS011;20744;50.938;7.286;2023-07-24T02:23:36;8.60;;;4.55;;
34497;SDS011;20744;50.938;7.286;2023-07-24T02:26:04;10.00;;;4.45;;
34497;SDS011;20744;50.938;7.286;2023-07-24T02:28:31;8.98;;;4.55;;
34497;SDS011;20744;50.938;7.286;2023-07-24T02:30:58;7.13;;;3.97;;
34497;SDS011;20744;50.938;7.286;2023-07-24T02:33:25;10.70;;;5.10;;
34497;SDS011;20744;50.938;7.286;2023-07-24T02:35:54;7.55;;;4.15;;
34497;SDS011;20744;50.938;7.286;2023-07-24T02:38:21;7.43;;;4.45;;
34497;SDS011;20744;50.938;7.286;2023-07-24T02:40:49;8.02;;;4.20;;
34497;SDS011;20744;50.938;7.286;2023-07-24T02:43:16;13.90;;;4.72;;
34497;SDS011;20744;50.938;7.286;2023-07-24T02:45:44;7.13;;;4.47;;
34497;SDS011;20744;50.938;7.286;2023-07-24T02:48:11;8.55;;;4.65;;
34497;SDS011;20744;50.938;7.286;2023-07-24T02:50:40;7.72;;;4.60;;
34497;SDS011;20744;50.938;7.286;2023-07-24T02:53:08;10.25;;;4.88;;
34497;SDS011;20744;50.938;7.286;2023-07-24T02:55:36;15.18;;;4.32;;
34497;SDS011;20744;50.938;7.286;2023-07-24T02:58:05;7.70;;;4.65;;
34497;SDS011;20744;50.938;7.286;2023-07-24T03:00:35;5.97;;;3.97;;
34497;SDS011;20744;50.938;7.286;2023-07-24T03:03:03;7.40;;;4.45;;
34497;SDS011;20744;50.938;7.286;2023-07-24T03:05:31;6.30;;;3.97;;
34497;SDS011;20744;50.938;7.286;2023-07-24T03:08:01;7.13;;;3.83;;
34497;SDS011;20744;50.938;7.286;2023-07-24T03:10:30;5.75;;;3.60;;
34497;SDS011;20744;50.938;7.286;2023-07-24T03:12:58;6.55;;;4.30;;
34497;SDS011;20744;50.938;7.286;2023-07-24T03:15:27;9.88;;;3.90;;
34497;SDS011;20744;50.938;7.286;2023-07-24T03:17:57;6.25;;;4.20;;
34497;SDS011;20744;50.938;7.286;2023-07-24T03:20:24;7.50;;;4.40;;
34497;SDS011;20744;50.938;7.286;2023-07-24T03:22:53;8.90;;;4.18;;
34497;SDS011;20744;50.938;7.286;2023-07-24T03:25:21;10.05;;;4.22;;
34497;SDS011;20744;50.938;7.286;2023-07-24T03:27:49;12.07;;;4.05;;
34497;SDS011;20744;50.938;7.286;2023-07-24T03:30:17;7.30;;;4.13;;
34497;SDS011;20744;50.938;7.286;2023-07-24T03:32:45;6.35;;;4.10;;
34497;SDS011;20744;50.938;7.286;2023-07-24T03:35:15;8.98;;;4.00;;
34497;SDS011;20744;50.938;7.286;2023-07-24T03:37:42;8.55;;;4.38;;
34497;SDS011;20744;50.938;7.286;2023-07-24T03:40:10;6.65;;;3.88;;
34497;SDS011;20744;50.938;7.286;2023-07-24T03:42:40;5.30;;;3.60;;
34497;SDS011;20744;50.938;7.286;2023-07-24T03:45:12;9.50;;;4.00;;
34497;SDS011;20744;50.938;7.286;2023-07-24T03:47:39;10.00;;;3.72;;
34497;SDS011;20744;50.938;7.286;2023-07-24T03:50:07;5.90;;;3.20;;
34497;SDS011;20744;50.938;7.286;2023-07-24T03:52:34;4.80;;;3.35;;
34497;SDS011;20744;50.938;7.286;2023-07-24T03:55:01;6.13;;;3.40;;
34497;SDS011;20744;50.938;7.286;2023-07-24T03:57:28;5.57;;;3.40;;
34497;SDS011;20744;50.938;7.286;2023-07-24T04:00:02;13.65;;;3.83;;
34497;SDS011;20744;50.938;7.286;2023-07-24T04:02:31;10.00;;;4.18;;
34497;SDS011;20744;50.938;7.286;2023-07-24T04:04:58;6.88;;;3.85;;
34497;SDS011;20744;50.938;7.286;2023-07-24T04:07:26;6.75;;;3.72;;
34497;SDS011;20744;50.938;7.286;2023-07-24T04:09:53;6.47;;;3.63;;
34497;SDS011;20744;50.938;7.286;2023-07-24T04:12:20;4.88;;;3.47;;
34497;SDS011;20744;50.938;7.286;2023-07-24T04:14:47;8.10;;;4.10;;
34497;SDS011;20744;50.938;7.286;2023-07-24T04:17:15;8.45;;;3.80;;
34497;SDS011;20744;50.938;7.286;2023-07-24T04:19:44;7.82;;;3.80;;
34497;SDS011;20744;50.938;7.286;2023-07-24T04:22:11;5.47;;;3.42;;
34497;SDS011;20744;50.938;7.286;2023-07-24T04:24:38;8.05;;;3.97;;
34497;SDS011;20744;50.938;7.286;2023-07-24T04:27:06;5.57;;;4.05;;
34497;SDS011;20744;50.938;7.286;2023-07-24T04:29:33;6.88;;;3.85;;
34497;SDS011;20744;50.938;7.286;2023-07-24T04:32:00;8.13;;;3.83;;
34497;SDS011;20744;50.938;7.286;2023-07-24T04:34:28;9.00;;;4.30;;
34497;SDS011;20744;50.938;7.286;2023-07-24T04:36:59;6.63;;;4.13;;
34497;SDS011;20744;50.938;7.286;2023-07-24T04:39:26;7.03;;;4.88;;
34497;SDS011;20744;50.938;7.286;2023-07-24T04:41:56;9.82;;;4.82;;
34497;SDS011;20744;50.938;7.286;2023-07-24T04:44:26;7.88;;;4.55;;
34497;SDS011;20744;50.938;7.286;2023-07-24T04:46:57;7.63;;;5.07;;
34497;SDS011;20744;50.938;7.286;2023-07-24T04:49:24;10.88;;;4.95;;
34497;SDS011;20744;50.938;7.286;2023-07-24T04:51:53;7.00;;;4.13;;
34497;SDS011;20744;50.938;7.286;2023-07-24T04:54:22;8.35;;;4.78;;
34497;SDS011;20744;50.938;7.286;2023-07-24T04:56:52;8.80;;;4.75;;
34497;SDS011;20744;50.938;7.286;2023-07-24T04:59:19;10.35;;;4.93;;
34497;SDS011;20744;50.938;7.286;2023-07-24T05:01:46;16.80;;;5.20;;
34497;SDS011;20744;50.938;7.286;2023-07-24T05:04:17;28.90;;;5.63;;
34497;SDS011;20744;50.938;7.286;2023-07-24T05:06:44;22.50;;;5.72;;
34497;SDS011;20744;50.938;7.286;2023-07-24T05:09:13;8.90;;;5.50;;
34497;SDS011;20744;50.938;7.286;2023-07-24T05:11:42;17.75;;;5.53;;
34497;SDS011;20744;50.938;7.286;2023-07-24T05:14:09;8.30;;;4.63;;
34497;SDS011;20744;50.938;7.286;2023-07-24T05:16:39;12.65;;;5.32;;
34497;SDS011;20744;50.938;7.286;2023-07-24T05:19:07;9.70;;;5.78;;
34497;SDS011;20744;50.938;7.286;2023-07-24T05:21:34;13.07;;;5.75;;
34497;SDS011;20744;50.938;7.286;2023-07-24T05:24:04;13.60;;;5.80;;
34497;SDS011;20744;50.938;7.286;2023-07-24T05:26:31;10.70;;;5.65;;
34497;SDS011;20744;50.938;7.286;2023-07-24T05:29:02;13.70;;;5.93;;
34497;SDS011;20744;50.938;7.286;2023-07-24T05:31:30;10.45;;;5.55;;
34497;SDS011;20744;50.938;7.286;2023-07-24T05:33:57;17.40;;;6.10;;
34497;SDS011;20744;50.938;7.286;2023-07-24T05:36:24;13.00;;;6.38;;
34497;SDS011;20744;50.938;7.286;2023-07-24T05:38:54;10.82;;;6.00;;
34497;SDS011;20744;50.938;7.286;2023-07-24T05:41:21;16.05;;;6.05;;
34497;SDS011;20744;50.938;7.286;2023-07-24T05:43:49;14.38;;;6.03;;
34497;SDS011;20744;50.938;7.286;2023-07-24T05:46:17;12.05;;;6.07;;
34497;SDS011;20744;50.938;7.286;2023-07-24T05:48:45;12.48;;;6.10;;
34497;SDS011;20744;50.938;7.286;2023-07-24T05:51:12;9.38;;;5.82;;
34497;SDS011;20744;50.938;7.286;2023-07-24T05:53:39;12.50;;;6.35;;
34497;SDS011;20744;50.938;7.286;2023-07-24T05:56:07;10.73;;;6.72;;
34497;SDS011;20744;50.938;7.286;2023-07-24T05:58:34;14.35;;;6.40;;
34497;SDS011;20744;50.938;7.286;2023-07-24T06:01:01;9.10;;;6.75;;
34497;SDS011;20744;50.938;7.286;2023-07-24T06:03:31;9.90;;;5.72;;
34497;SDS011;20744;50.938;7.286;2023-07-24T06:05:58;13.15;;;5.88;;
34497;SDS011;20744;50.938;7.286;2023-07-24T06:08:25;9.20;;;5.22;;
34497;SDS011;20744;50.938;7.286;2023-07-24T06:10:52;14.50;;;5.53;;
34497;SDS011;20744;50.938;7.286;2023-07-24T06:13:20;9.50;;;5.22;;
34497;SDS011;20744;50.938;7.286;2023-07-24T06:15:47;9.38;;;5.22;;
34497;SDS011;20744;50.938;7.286;2023-07-24T06:18:14;9.18;;;5.20;;
34497;SDS011;20744;50.938;7.286;2023-07-24T06:20:43;7.57;;;5.22;;
34497;SDS011;20744;50.938;7.286;2023-07-24T06:23:10;12.00;;;5.30;;
34497;SDS011;20744;50.938;7.286;2023-07-24T06:25:38;12.30;;;5.05;;
34497;SDS011;20744;50.938;7.286;2023-07-24T06:28:07;10.05;;;4.97;;
34497;SDS011;20744;50.938;7.286;2023-07-24T06:30:37;11.23;;;5.35;;
34497;SDS011;20744;50.938;7.286;2023-07-24T06:33:05;9.02;;;4.95;;
34497;SDS011;20744;50.938;7.286;2023-07-24T06:35:32;7.90;;;4.65;;
34497;SDS011;20744;50.938;7.286;2023-07-24T06:38:02;10.55;;;5.13;;
34497;SDS011;20744;50.938;7.286;2023-07-24T06:40:29;13.48;;;4.80;;
34497;SDS011;20744;50.938;7.286;2023-07-24T06:42:59;8.57;;;4.45;;
34497;SDS011;20744;50.938;7.286;2023-07-24T06:45:27;8.07;;;4.75;;
34497;SDS011;20744;50.938;7.286;2023-07-24T06:47:55;9.70;;;4.90;;
34497;SDS011;20744;50.938;7.286;2023-07-24T06:50:22;8.45;;;4.85;;
34497;SDS011;20744;50.938;7.286;2023-07-24T06:52:51;8.50;;;4.75;;
34497;SDS011;20744;50.938;7.286;2023-07-24T06:55:20;10.18;;;5.13;;
34497;SDS011;20744;50.938;7.286;2023-07-24T06:57:47;10.38;;;4.53;;
34497;SDS011;20744;50.938;7.286;2023-07-24T07:00:14;9.18;;;4.43;;
34497;SDS011;20744;50.938;7.286;2023-07-24T07:02:42;7.90;;;4.63;;
34497;SDS011;20744;50.938;7.286;2023-07-24T07:05:09;6.55;;;4.63;;
34497;SDS011;20744;50.938;7.286;2023-07-24T07:07:39;9.95;;;4.57;;
34497;SDS011;20744;50.938;7.286;2023-07-24T07:10:06;10.57;;;4.78;;
34497;SDS011;20744;50.938;7.286;2023-07-24T07:12:35;9.27;;;4.60;;
34497;SDS011;20744;50.938;7.286;2023-07-24T07:15:03;9.52;;;4.40;;
34497;SDS011;20744;50.938;7.286;2023-07-24T07:17:30;6.53;;;4.55;;
34497;SDS011;20744;50.938;7.286;2023-07-24T07:19:57;7.68;;;4.70;;
34497;SDS011;20744;50.938;7.286;2023-07-24T07:22:25;7.68;;;4.60;;
34497;SDS011;20744;50.938;7.286;2023-07-24T07:24:53;8.75;;;4.70;;
34497;SDS011;20744;50.938;7.286;2023-07-24T07:27:20;8.40;;;4.20;;
34497;SDS011;20744;50.938;7.286;2023-07-24T07:29:49;6.30;;;4.00;;
34497;SDS011;20744;50.938;7.286;2023-07-24T07:32:16;7.47;;;3.88;;
34497;SDS011;20744;50.938;7.286;2023-07-24T07:34:44;7.90;;;4.10;;
34497;SDS011;20744;50.938;7.286;2023-07-24T07:37:11;6.68;;;4.20;;
34497;SDS011;20744;50.938;7.286;2023-07-24T07:39:41;7.22;;;3.78;;
34497;SDS011;20744;50.938;7.286;2023-07-24T07:42:08;10.27;;;4.47;;
34497;SDS011;20744;50.938;7.286;2023-07-24T07:44:38;10.27;;;4.22;;
34497;SDS011;20744;50.938;7.286;2023-07-24T07:47:07;7.88;;;3.92;;
34497;SDS011;20744;50.938;7.286;2023-07-24T07:49:34;5.32;;;3.78;;
34497;SDS011;20744;50.938;7.286;2023-07-24T07:52:01;5.65;;;3.20;;
34497;SDS011;20744;50.938;7.286;2023-07-24T07:54:29;5.75;;;3.80;;
34497;SDS011;20744;50.938;7.286;2023-07-24T07:56:56;6.20;;;3.50;;
34497;SDS011;20744;50.938;7.286;2023-07-24T07:59:23;6.80;;;3.63;;
34497;SDS011;20744;50.938;7.286;2023-07-24T08:01:53;6.32;;;3.67;;
34497;SDS011;20744;50.938;7.286;2023-07-24T08:04:21;7.55;;;3.75;;
34497;SDS011;20744;50.938;7.286;2023-07-24T08:06:49;9.50;;;4.10;;
34497;SDS011;20744;50.938;7.286;2023-07-24T08:09:16;4.32;;;3.10;;
34497;SDS011;20744;50.938;7.286;2023-07-24T08:11:43;5.13;;;3.40;;
34497;SDS011;20744;50.938;7.286;2023-07-24T08:14:11;8.75;;;3.85;;
34497;SDS011;20744;50.938;7.286;2023-07-24T08:16:40;12.45;;;3.83;;
34497;SDS011;20744;50.938;7.286;2023-07-24T08:19:08;6.97;;;4.05;;
34497;SDS011;20744;50.938;7.286;2023-07-24T08:21:38;8.65;;;4.07;;
34497;SDS011;20744;50.938;7.286;2023-07-24T08:24:06;5.55;;;3.53;;
34497;SDS011;20744;50.938;7.286;2023-07-24T08:26:33;5.82;;;3.53;;
34497;SDS011;20744;50.938;7.286;2023-07-24T08:29:00;5.07;;;3.20;;
34497;SDS011;20744;50.938;7.286;2023-07-24T08:31:28;5.32;;;3.35;;
34497;SDS011;20744;50.938;7.286;2023-07-24T08:33:56;7.63;;;3.33;;
34497;SDS011;20744;50.938;7.286;2023-07-24T08:36:23;5.28;;;3.30;;
34497;SDS011;20744;50.938;7.286;2023-07-24T08:38:52;4.57;;;3.28;;
34497;SDS011;20744;50.938;7.286;2023-07-24T08:41:19;5.97;;;3.38;;
34497;SDS011;20744;50.938;7.286;2023-07-24T08:43:46;7.95;;;3.20;;
34497;SDS011;20744;50.938;7.286;2023-07-24T08:46:14;6.90;;;3.55;;
34497;SDS011;20744;50.938;7.286;2023-07-24T08:48:42;4.03;;;3.08;;
34497;SDS011;20744;50.938;7.286;2023-07-24T08:51:09;6.55;;;3.10;;
34497;SDS011;20744;50.938;7.286;2023-07-24T08:53:40;7.38;;;3.55;;
34497;SDS011;20744;50.938;7.286;2023-07-24T08:56:10;7.32;;;3.28;;
34497;SDS011;20744;50.938;7.286;2023-07-24T08:58:38;3.90;;;3.20;;
34497;SDS011;20744;50.938;7.286;2023-07-24T09:01:06;8.60;;;3.33;;
34497;SDS011;20744;50.938;7.286;2023-07-24T09:03:33;6.93;;;3.28;;
34497;SDS011;20744;50.938;7.286;2023-07-24T09:06:01;5.82;;;3.30;;
34497;SDS011;20744;50.938;7.286;2023-07-24T09:08:32;4.38;;;3.35;;
34497;SDS011;20744;50.938;7.286;2023-07-24T09:10:59;6.97;;;3.47;;
34497;SDS011;20744;50.938;7.286;2023-07-24T09:13:28;6.57;;;2.75;;
34497;SDS011;20744;50.938;7.286;2023-07-24T09:15:56;6.45;;;3.20;;
34497;SDS011;20744;50.938;7.286;2023-07-24T09:18:24;3.70;;;3.13;;
34497;SDS011;20744;50.938;7.286;2023-07-24T09:20:51;5.70;;;3.42;;
34497;SDS011;20744;50.938;7.286;2023-07-24T09:23:25;5.35;;;3.20;;
34497;SDS011;20744;50.938;7.286;2023-07-24T09:25:55;5.22;;;3.25;;
34497;SDS011;20744;50.938;7.286;2023-07-24T09:28:23;6.55;;;2.90;;
34497;SDS011;20744;50.938;7.286;2023-07-24T09:30:57;4.85;;;2.88;;
34497;SDS011;20744;50.938;7.286;2023-07-24T09:36:11;5.25;;;2.90;;
34497;SDS011;20744;50.938;7.286;2023-07-24T09:38:40;4.22;;;2.70;;
34497;SDS011;20744;50.938;7.286;2023-07-24T09:41:07;6.68;;;3.00;;
34497;SDS011;20744;50.938;7.286;2023-07-24T09:43:37;3.88;;;2.90;;
34497;SDS011;20744;50.938;7.286;2023-07-24T09:46:06;3.75;;;2.67;;
34497;SDS011;20744;50.938;7.286;2023-07-24T09:48:36;4.50;;;2.58;;
34497;SDS011;20744;50.938;7.286;2023-07-24T09:51:04;6.47;;;3.05;;
34497;SDS011;20744;50.938;7.286;2023-07-24T09:53:32;4.85;;;3.05;;
34497;SDS011;20744;50.938;7.286;2023-07-24T09:56:00;5.60;;;2.92;;
34497;SDS011;20744;50.938;7.286;2023-07-24T09:58:32;4.57;;;2.75;;
34497;SDS011;20744;50.938;7.286;2023-07-24T10:01:00;3.63;;;2.47;;
34497;SDS011;20744;50.938;7.286;2023-07-24T10:03:29;3.17;;;2.50;;
34497;SDS011;20744;50.938;7.286;2023-07-24T10:15:12;4.63;;;2.70;;
34497;SDS011;20744;50.938;7.286;2023-07-24T10:17:41;5.00;;;2.88;;
34497;SDS011;20744;50.938;7.286;2023-07-24T10:20:10;6.03;;;2.72;;
34497;SDS011;20744;50.938;7.286;2023-07-24T10:22:42;4.90;;;2.92;;
34497;SDS011;20744;50.938;7.286;2023-07-24T10:25:09;6.35;;;3.22;;
34497;SDS011;20744;50.938;7.286;2023-07-24T10:27:45;3.58;;;2.58;;
34497;SDS011;20744;50.938;7.286;2023-07-24T10:30:14;3.63;;;2.30;;
34497;SDS011;20744;50.938;7.286;2023-07-24T10:32:45;3.78;;;2.25;;
34497;SDS011;20744;50.938;7.286;2023-07-24T10:35:14;7.28;;;2.80;;
34497;SDS011;20744;50.938;7.286;2023-07-24T10:37:43;4.30;;;2.80;;
34497;SDS011;20744;50.938;7.286;2023-07-24T10:40:18;4.30;;;2.80;;
34497;SDS011;20744;50.938;7.286;2023-07-24T10:42:46;3.97;;;2.53;;
34497;SDS011;20744;50.938;7.286;2023-07-24T10:45:13;3.85;;;2.58;;
34497;SDS011;20744;50.938;7.286;2023-07-24T10:47:40;3.92;;;2.72;;
34497;SDS011;20744;50.938;7.286;2023-07-24T10:50:08;6.00;;;2.60;;
34497;SDS011;20744;50.938;7.286;2023-07-24T10:52:37;3.72;;;2.42;;
34497;SDS011;20744;50.938;7.286;2023-07-24T10:55:04;4.13;;;2.67;;
34497;SDS011;20744;50.938;7.286;2023-07-24T10:57:32;4.53;;;2.47;;
34497;SDS011;20744;50.938;7.286;2023-07-24T10:59:59;3.72;;;2.45;;
34497;SDS011;20744;50.938;7.286;2023-07-24T11:02:26;5.03;;;2.58;;
34497;SDS011;20744;50.938;7.286;2023-07-24T11:04:54;3.00;;;2.33;;
34497;SDS011;20744;50.938;7.286;2023-07-24T11:07:26;4.15;;;2.20;;
34497;SDS011;20744;50.938;7.286;2023-07-24T11:10:02;4.03;;;2.60;;
34497;SDS011;20744;50.938;7.286;2023-07-24T11:12:31;4.95;;;2.40;;
34497;SDS011;20744;50.938;7.286;2023-07-24T11:14:59;2.72;;;2.13;;
34497;SDS011;20744;50.938;7.286;2023-07-24T11:17:33;5.43;;;2.42;;
34497;SDS011;20744;50.938;7.286;2023-07-24T11:20:08;4.32;;;2.30;;
34497;SDS011;20744;50.938;7.286;2023-07-24T11:22:39;3.67;;;2.38;;
34497;SDS011;20744;50.938;7.286;2023-07-24T11:25:11;4.07;;;2.55;;
34497;SDS011;20744;50.938;7.286;2023-07-24T11:27:38;5.18;;;2.42;;
34497;SDS011;20744;50.938;7.286;2023-07-24T11:30:07;3.90;;;2.40;;
34497;SDS011;20744;50.938;7.286;2023-07-24T11:32:35;5.68;;;2.50;;
34497;SDS011;20744;50.938;7.286;2023-07-24T11:35:02;3.05;;;2.30;;
34497;SDS011;20744;50.938;7.286;2023-07-24T11:37:29;3.58;;;2.55;;
34497;SDS011;20744;50.938;7.286;2023-07-24T11:39:57;5.75;;;2.50;;
34497;SDS011;20744;50.938;7.286;2023-07-24T11:42:33;4.63;;;2.58;;
34497;SDS011;20744;50.938;7.286;2023-07-24T11:45:01;3.70;;;2.47;;
34497;SDS011;20744;50.938;7.286;2023-07-24T11:47:28;10.88;;;3.22;;
34497;SDS011;20744;50.938;7.286;2023-07-24T11:49:56;7.15;;;3.40;;
34497;SDS011;20744;50.938;7.286;2023-07-24T11:52:24;7.40;;;3.35;;
34497;SDS011;20744;50.938;7.286;2023-07-24T11:54:57;4.22;;;2.90;;
34497;SDS011;20744;50.938;7.286;2023-07-24T11:57:26;4.85;;;2.70;;
34497;SDS011;20744;50.938;7.286;2023-07-24T11:59:56;5.68;;;3.17;;
34497;SDS011;20744;50.938;7.286;2023-07-24T12:02:26;7.20;;;3.28;;
34497;SDS011;20744;50.938;7.286;2023-07-24T12:04:55;6.63;;;2.78;;
34497;SDS011;20744;50.938;7.286;2023-07-24T12:07:29;5.10;;;2.85;;
34497;SDS011;20744;50.938;7.286;2023-07-24T12:09:57;3.25;;;2.60;;
34497;SDS011;20744;50.938;7.286;2023-07-24T12:12:24;7.55;;;2.70;;
34497;SDS011;20744;50.938;7.286;2023-07-24T12:14:51;4.82;;;2.60;;
34497;SDS011;20744;50.938;7.286;2023-07-24T12:17:22;2.60;;;1.50;;
34497;SDS011;20744;50.938;7.286;2023-07-24T12:19:50;3.88;;;1.48;;
34497;SDS011;20744;50.938;7.286;2023-07-24T12:22:17;2.63;;;1.27;;
34497;SDS011;20744;50.938;7.286;2023-07-24T12:24:44;2.85;;;0.98;;
34497;SDS011;20744;50.938;7.286;2023-07-24T12:27:12;1.25;;;0.80;;
34497;SDS011;20744;50.938;7.286;2023-07-24T12:29:42;2.22;;;1.25;;
34497;SDS011;20744;50.938;7.286;2023-07-24T12:32:09;2.95;;;1.60;;
34497;SDS011;20744;50.938;7.286;2023-07-24T12:34:38;4.57;;;1.48;;
34497;SDS011;20744;50.938;7.286;2023-07-24T12:37:06;3.80;;;1.45;;
34497;SDS011;20744;50.938;7.286;2023-07-24T12:39:33;3.92;;;1.63;;
34497;SDS011;20744;50.938;7.286;2023-07-24T12:42:00;4.53;;;1.63;;
34497;SDS011;20744;50.938;7.286;2023-07-24T12:44:28;4.70;;;1.67;;
34497;SDS011;20744;50.938;7.286;2023-07-24T12:46:55;3.90;;;1.60;;
34497;SDS011;20744;50.938;7.286;2023-07-24T12:49:22;6.22;;;2.05;;
34497;SDS011;20744;50.938;7.286;2023-07-24T12:51:51;6.88;;;1.98;;
34497;SDS011;20744;50.938;7.286;2023-07-24T12:54:21;6.97;;;2.60;;
34497;SDS011;20744;50.938;7.286;2023-07-24T12:56:48;3.53;;;1.80;;
34497;SDS011;20744;50.938;7.286;2023-07-24T12:59:15;3.72;;;1.58;;
34497;SDS011;20744;50.938;7.286;2023-07-24T13:01:43;5.22;;;1.92;;
34497;SDS011;20744;50.938;7.286;2023-07-24T13:04:11;6.45;;;1.90;;
34497;SDS011;20744;50.938;7.286;2023-07-24T13:06:38;4.45;;;1.80;;
34497;SDS011;20744;50.938;7.286;2023-07-24T13:09:07;2.83;;;1.80;;
34497;SDS011;20744;50.938;7.286;2023-07-24T13:11:34;3.75;;;2.00;;
34497;SDS011;20744;50.938;7.286;2023-07-24T13:14:01;4.60;;;1.90;;
34497;SDS011;20744;50.938;7.286;2023-07-24T13:16:29;9.15;;;2.28;;
34497;SDS011;20744;50.938;7.286;2023-07-24T13:18:56;4.53;;;2.17;;
34497;SDS011;20744;50.938;7.286;2023-07-24T13:21:23;6.82;;;2.78;;
34497;SDS011;20744;50.938;7.286;2023-07-24T13:23:51;5.88;;;2.20;;
34497;SDS011;20744;50.938;7.286;2023-07-24T13:26:19;3.50;;;1.98;;
34497;SDS011;20744;50.938;7.286;2023-07-24T13:28:47;7.65;;;2.28;;
34497;SDS011;20744;50.938;7.286;2023-07-24T13:31:16;4.47;;;2.20;;
34497;SDS011;20744;50.938;7.286;2023-07-24T13:33:43;4.45;;;2.00;;
34497;SDS011;20744;50.938;7.286;2023-07-24T13:36:11;7.80;;;2.20;;
34497;SDS011;20744;50.938;7.286;2023-07-24T13:38:38;3.60;;;1.55;;
34497;SDS011;20744;50.938;7.286;2023-07-24T13:41:06;2.53;;;1.45;;
34497;SDS011;20744;50.938;7.286;2023-07-24T13:43:35;3.88;;;1.95;;
34497;SDS011;20744;50.938;7.286;2023-07-24T13:46:04;6.20;;;2.03;;
34497;SDS011;20744;50.938;7.286;2023-07-24T13:48:33;3.08;;;1.63;;
34497;SDS011;20744;50.938;7.286;2023-07-24T13:51:00;4.63;;;1.80;;
34497;SDS011;20744;50.938;7.286;2023-07-24T13:53:28;3.67;;;1.50;;
34497;SDS011;20744;50.938;7.286;2023-07-24T13:55:55;2.45;;;1.35;;
34497;SDS011;20744;50.938;7.286;2023-07-24T13:58:22;3.67;;;1.52;;
34497;SDS011;20744;50.938;7.286;2023-07-24T14:00:53;7.10;;;1.90;;
34497;SDS011;20744;50.938;7.286;2023-07-24T14:03:21;5.32;;;2.17;;
34497;SDS011;20744;50.938;7.286;2023-07-24T14:05:49;4.60;;;2.13;;
34497;SDS011;20744;50.938;7.286;2023-07-24T14:08:16;3.08;;;2.00;;
34497;SDS011;20744;50.938;7.286;2023-07-24T14:10:43;8.02;;;2.20;;
34497;SDS011;20744;50.938;7.286;2023-07-24T14:13:11;3.53;;;1.85;;
34497;SDS011;20744;50.938;7.286;2023-07-24T14:15:38;5.63;;;2.10;;
34497;SDS011;20744;50.938;7.286;2023-07-24T14:18:06;4.25;;;2.03;;
34497;SDS011;20744;50.938;7.286;2023-07-24T14:20:34;4.40;;;2.08;;
34497;SDS011;20744;50.938;7.286;2023-07-24T14:23:02;4.43;;;2.08;;
34497;SDS011;20744;50.938;7.286;2023-07-24T14:25:29;6.60;;;2.22;;
34497;SDS011;20744;50.938;7.286;2023-07-24T14:27:57;4.63;;;2.33;;
34497;SDS011;20744;50.938;7.286;2023-07-24T14:30:24;4.32;;;2.42;;
34497;SDS011;20744;50.938;7.286;2023-07-24T14:32:51;5.25;;;2.15;;
34497;SDS011;20744;50.938;7.286;2023-07-24T14:35:20;6.18;;;2.28;;
34497;SDS011;20744;50.938;7.286;2023-07-24T14:37:48;8.45;;;2.47;;
34497;SDS011;20744;50.938;7.286;2023-07-24T14:40:15;5.22;;;2.58;;
34497;SDS011;20744;50.938;7.286;2023-07-24T14:42:42;5.80;;;2.50;;
34497;SDS011;20744;50.938;7.286;2023-07-24T14:45:10;6.03;;;2.55;;
34497;SDS011;20744;50.938;7.286;2023-07-24T14:47:43;6.22;;;2.63;;
34497;SDS011;20744;50.938;7.286;2023-07-24T14:50:10;5.40;;;2.55;;
34497;SDS011;20744;50.938;7.286;2023-07-24T14:52:39;6.80;;;2.17;;
34497;SDS011;20744;50.938;7.286;2023-07-24T14:55:06;3.17;;;2.00;;
34497;SDS011;20744;50.938;7.286;2023-07-24T14:57:34;4.55;;;2.28;;
34497;SDS011;20744;50.938;7.286;2023-07-24T15:00:02;6.00;;;2.15;;
34497;SDS011;20744;50.938;7.286;2023-07-24T15:02:30;3.15;;;1.85;;